Terminal Aerodrome Forecast
Issued by NWS

Home | Current Version | Previous Version | Text Only | Print | Product List | Glossary Off
Versions: 1 2 3 4 5 6 7 8 9 10 11 12 13 14 15 16

274
FTUS42 KMHX 280401 AAB
TAFPGV
TAF AMD
KPGV 280401Z 2804/2824 18004KT P6SM VCTS BKN045CB BKN100
     FM280600 18004KT P6SM VCSH BKN050
     FM281200 22007KT P6SM VCSH SCT050 BKN090
     FM281800 24008KT P6SM VCTS BKN050CB
      AMD LTD TO CLD VIS AND WIND=

USA.gov is the U.S. government's official web portal to all federal, state and local government web resources and services.